createdAt,value
2022-10-07T00:00:45.403Z,1013.498413
2022-10-07T00:01:41.111Z,1013.463684
2022-10-07T00:02:42.480Z,1013.529663
2022-10-07T00:03:39.832Z,1013.488586
2022-10-07T00:04:37.331Z,1013.551331
2022-10-07T00:05:37.662Z,1013.508423
2022-10-07T00:07:35.339Z,1013.424194
2022-10-07T00:08:27.283Z,1013.442505
2022-10-07T00:09:29.348Z,1013.445801
2022-10-07T00:10:20.948Z,1013.473755
2022-10-07T00:11:22.395Z,1013.513306
2022-10-07T00:12:16.909Z,1013.444092
2022-10-07T00:13:12.587Z,1013.480286
2022-10-07T00:14:49.081Z,1013.541382
2022-10-07T00:15:36.609Z,1013.500183
2022-10-07T00:16:35.779Z,1013.387878
2022-10-07T00:17:36.818Z,1013.511719
2022-10-07T00:18:34.480Z,1013.391235
2022-10-07T00:19:36.899Z,1013.419373
2022-10-07T00:20:41.363Z,1013.333679
2022-10-07T00:22:40.486Z,1013.378052
2022-10-07T00:23:39.878Z,1013.449158
2022-10-07T00:24:42.422Z,1013.373291
2022-10-07T00:25:38.426Z,1013.401184
2022-10-07T00:27:35.550Z,1013.407715
2022-10-07T00:28:38.822Z,1013.33844
2022-10-07T00:29:35.671Z,1013.331848
2022-10-07T00:30:39.883Z,1013.238098
2022-10-07T00:31:32.921Z,1013.279114
2022-10-07T00:32:38.214Z,1013.228149
2022-10-07T00:33:37.326Z,1013.201782
2022-10-07T00:34:46.354Z,1013.224854
2022-10-07T00:35:42.575Z,1013.205078
2022-10-07T00:37:42.386Z,1013.219666
2022-10-07T00:38:42.863Z,1013.16217
2022-10-07T00:39:38.871Z,1013.165466
2022-10-07T00:40:39.065Z,1013.24469
2022-10-07T00:41:35.403Z,1013.119385
2022-10-07T00:42:38.414Z,1013.157104
2022-10-07T00:43:37.587Z,1013.216492
2022-10-07T00:44:41.741Z,1013.059998
2022-10-07T00:45:35.010Z,1013.15564
2022-10-07T00:47:33.066Z,1013.115967
2022-10-07T00:48:36.558Z,1013.117493
2022-10-07T00:49:29.232Z,1013.094482
2022-10-07T00:50:31.759Z,1013.132507
2022-10-07T00:52:24.531Z,1013.091064
2022-10-07T00:53:25.622Z,1013.068054
2022-10-07T00:54:21.802Z,1013.096252
2022-10-07T00:55:24.867Z,1013.107666
2022-10-07T00:57:23.019Z,1013.086304
2022-10-07T00:58:26.784Z,1012.988892
2022-10-07T01:00:38.423Z,1012.921387
2022-10-07T01:01:02.633Z,1012.972168
2022-10-07T01:03:06.295Z,1012.971863
2022-10-07T01:04:09.046Z,1012.991699
2022-10-07T01:05:09.111Z,1012.948914
2022-10-07T01:06:09.746Z,1013.028076
2022-10-07T01:07:12.068Z,1012.960632
2022-10-07T01:08:14.061Z,1012.884827
2022-10-07T01:09:20.749Z,1012.942505
2022-10-07T01:10:21.407Z,1012.911316
2022-10-07T01:11:20.365Z,1012.942505
2022-10-07T01:12:27.790Z,1012.894836
2022-10-07T01:13:30.393Z,1012.865295
2022-10-07T01:14:33.045Z,1012.866821
2022-10-07T01:15:33.100Z,1012.797485
2022-10-07T01:16:35.329Z,1012.832336
2022-10-07T01:17:33.062Z,1012.823914
2022-10-07T01:18:35.630Z,1012.868591
2022-10-07T01:19:36.475Z,1012.782837
2022-10-07T01:20:34.366Z,1012.84375
2022-10-07T01:22:33.407Z,1012.812683
2022-10-07T01:23:37.089Z,1012.812683
2022-10-07T01:24:32.319Z,1012.824036
2022-10-07T01:25:37.034Z,1012.746704
2022-10-07T01:26:33.138Z,1012.761353
2022-10-07T01:27:34.924Z,1012.702026
2022-10-07T01:28:35.858Z,1012.670837
2022-10-07T01:29:38.528Z,1012.733582
2022-10-07T01:30:36.536Z,1012.632813
2022-10-07T01:32:38.091Z,1012.628113
2022-10-07T01:33:41.106Z,1012.595154
2022-10-07T01:34:38.184Z,1012.621582
2022-10-07T01:35:43.799Z,1012.637939
2022-10-07T01:37:27.596Z,1012.58844
2022-10-07T01:38:12.917Z,1012.611572
2022-10-07T01:39:10.041Z,1012.555481
2022-10-07T01:40:08.471Z,1012.547058
2022-10-07T01:41:07.265Z,1012.556946
2022-10-07T01:42:06.272Z,1012.494202
2022-10-07T01:43:07.205Z,1012.479675
2022-10-07T01:43:59.356Z,1012.456543
2022-10-07T01:44:59.501Z,1012.423584
2022-10-07T01:45:56.731Z,1012.433533
2022-10-07T01:46:55.946Z,1012.433533
2022-10-07T01:47:51.544Z,1012.43689
2022-10-07T01:49:05.020Z,1012.359192
2022-10-07T01:50:00.468Z,1012.354553
2022-10-07T01:51:00.894Z,1012.341248
2022-10-07T01:51:55.536Z,1012.347839
2022-10-07T01:52:55.454Z,1012.359192
2022-10-07T01:53:53.876Z,1012.299927
2022-10-07T01:55:00.506Z,1012.370911
2022-10-07T01:55:55.325Z,1012.265442
2022-10-07T01:57:54.049Z,1012.179749
2022-10-07T01:58:47.739Z,1012.258911
2022-10-07T01:59:55.199Z,1012.181274
2022-10-07T02:01:03.488Z,1012.230713
2022-10-07T02:02:02.094Z,1012.197815
2022-10-07T02:03:00.268Z,1012.280151
2022-10-07T02:04:02.818Z,1012.204346
2022-10-07T02:04:57.026Z,1012.19635
2022-10-07T02:05:56.342Z,1012.249084
2022-10-07T02:07:52.158Z,1012.186401
2022-10-07T02:08:47.954Z,1012.197815
2022-10-07T02:09:50.364Z,1012.243958
2022-10-07T02:10:44.126Z,1012.199707
2022-10-07T02:11:44.725Z,1012.258972
2022-10-07T02:12:39.917Z,1012.199707
2022-10-07T02:13:39.503Z,1012.156799
2022-10-07T02:14:33.874Z,1012.183105
2022-10-07T02:15:36.813Z,1012.191223
2022-10-07T02:16:41.255Z,1012.171509
2022-10-07T02:17:49.320Z,1012.087646
2022-10-07T02:18:47.802Z,1012.12561
2022-10-07T02:20:21.342Z,1012.133606
2022-10-07T02:22:05.239Z,1012.086731
2022-10-07T02:22:45.104Z,1012.028442
2022-10-07T02:23:49.723Z,1012.033386
2022-10-07T02:24:44.788Z,1012.058228
2022-10-07T02:25:41.584Z,1012.038574
2022-10-07T02:26:45.808Z,1012.027344
2022-10-07T02:27:43.250Z,1012.045654
2022-10-07T02:28:44.638Z,1012.027832
2022-10-07T02:29:39.887Z,1012.026123
2022-10-07T02:30:41.638Z,1011.999695
2022-10-07T02:31:36.109Z,1011.945496
2022-10-07T02:32:35.617Z,1011.983276
2022-10-07T02:33:30.804Z,1012.055847
2022-10-07T02:34:33.080Z,1011.881104
2022-10-07T02:35:28.292Z,1011.97998
2022-10-07T02:36:29.016Z,1011.983276
2022-10-07T02:37:24.275Z,1012.027954
2022-10-07T02:38:24.908Z,1011.950317
2022-10-07T02:39:20.659Z,1011.968567
2022-10-07T02:40:22.845Z,1011.920776
2022-10-07T02:41:31.648Z,1011.886353
2022-10-07T02:42:28.334Z,1011.897705
2022-10-07T02:43:29.962Z,1011.874695
2022-10-07T02:44:24.427Z,1011.858276
2022-10-07T02:45:26.667Z,1011.894531
2022-10-07T02:47:20.307Z,1011.795654
2022-10-07T02:48:22.645Z,1011.879761
2022-10-07T02:49:15.311Z,1011.836853
2022-10-07T02:50:18.510Z,1011.818604
2022-10-07T02:51:10.407Z,1011.833618
2022-10-07T02:52:11.036Z,1011.787354
2022-10-07T02:53:08.659Z,1011.780762
2022-10-07T02:54:07.185Z,1011.770935
2022-10-07T02:55:04.307Z,1011.75592
2022-10-07T02:55:59.750Z,1011.701721
2022-10-07T02:57:58.713Z,1011.759155
2022-10-07T02:59:02.414Z,1011.662048
2022-10-07T03:00:46.497Z,1011.726013
2022-10-07T03:02:24.961Z,1011.753723
2022-10-07T03:03:24.269Z,1011.641724
2022-10-07T03:04:24.591Z,1011.600464
2022-10-07T03:05:23.942Z,1011.577393
2022-10-07T03:07:45.313Z,1011.516541
2022-10-07T03:08:39.690Z,1011.618774
2022-10-07T03:09:41.362Z,1011.641724
2022-10-07T03:10:39.465Z,1011.554199
2022-10-07T03:12:34.199Z,1011.53772
2022-10-07T03:13:37.470Z,1011.498291
2022-10-07T03:14:33.801Z,1011.505066
2022-10-07T03:15:36.392Z,1011.488586
2022-10-07T03:15:42.358Z,1011.488586
2022-10-07T03:17:26.029Z,1011.52002
2022-10-07T03:18:25.719Z,1011.46875
2022-10-07T03:19:22.205Z,1011.533264
2022-10-07T03:20:24.022Z,1011.492004
2022-10-07T03:22:18.694Z,1011.477173
2022-10-07T03:23:14.680Z,1011.434326
2022-10-07T03:24:16.493Z,1011.455688
2022-10-07T03:25:08.979Z,1011.444458
2022-10-07T03:26:11.389Z,1011.380005
2022-10-07T03:27:10.452Z,1011.398254
2022-10-07T03:28:15.364Z,1011.388306
2022-10-07T03:29:07.325Z,1011.388306
2022-10-07T03:30:07.609Z,1011.337097
2022-10-07T03:31:04.239Z,1011.347046
2022-10-07T03:33:03.505Z,1011.340454
2022-10-07T03:34:04.946Z,1011.340454
2022-10-07T03:35:03.538Z,1011.312683
2022-10-07T03:36:00.004Z,1011.340454
2022-10-07T03:38:05.649Z,1011.292969
2022-10-07T03:39:07.644Z,1011.327393
2022-10-07T03:40:03.887Z,1011.286377
2022-10-07T03:42:09.498Z,1011.342529
2022-10-07T03:43:06.523Z,1011.335938
2022-10-07T03:44:07.356Z,1011.339355
2022-10-07T03:45:06.296Z,1011.299866
2022-10-07T03:46:07.819Z,1011.28186
2022-10-07T03:48:06.498Z,1011.285339
2022-10-07T03:49:01.178Z,1011.349365
2022-10-07T03:50:02.915Z,1011.351257
2022-10-07T03:51:01.158Z,1011.295166
2022-10-07T03:52:55.447Z,1011.341309
2022-10-07T03:53:57.175Z,1011.379089
2022-10-07T03:54:53.587Z,1011.3974
2022-10-07T03:55:52.910Z,1011.336243
2022-10-07T03:56:50.934Z,1011.344666
2022-10-07T03:57:59.621Z,1011.313293
2022-10-07T03:58:50.802Z,1011.247498
2022-10-07T03:59:51.707Z,1011.362488
2022-10-07T04:00:47.149Z,1011.301697
2022-10-07T04:01:48.032Z,1011.282166
2022-10-07T04:02:47.658Z,1011.252319
2022-10-07T04:03:49.860Z,1011.304993
2022-10-07T04:05:17.822Z,1011.288513
2022-10-07T04:06:04.848Z,1011.263916
2022-10-07T04:08:09.077Z,1011.295166
2022-10-07T04:09:04.431Z,1011.280151
2022-10-07T04:10:06.189Z,1011.255615
2022-10-07T04:11:07.311Z,1011.245728
2022-10-07T04:12:06.558Z,1011.230774
2022-10-07T04:13:01.650Z,1011.226013
2022-10-07T04:14:01.533Z,1011.204529
2022-10-07T04:15:00.846Z,1011.204529
2022-10-07T04:16:03.936Z,1011.206238
2022-10-07T04:17:58.369Z,1011.206238
2022-10-07T04:18:53.972Z,1011.207825
2022-10-07T04:19:57.942Z,1011.17157
2022-10-07T04:20:54.321Z,1011.189819
2022-10-07T04:22:49.099Z,1011.147034
2022-10-07T04:23:50.284Z,1011.112244
2022-10-07T04:24:45.837Z,1011.114075
2022-10-07T04:25:43.326Z,1011.099121
2022-10-07T04:27:52.070Z,1011.09259
2022-10-07T04:28:53.467Z,1011.049683
2022-10-07T04:29:51.029Z,1011.104248
2022-10-07T04:30:50.607Z,1011.112366
2022-10-07T04:32:46.148Z,1011.061401
2022-10-07T04:33:49.268Z,1011.059631
2022-10-07T04:34:44.338Z,1011.08783
2022-10-07T04:35:45.918Z,1011.07135
2022-10-07T04:36:41.466Z,1011.074524
2022-10-07T04:37:41.875Z,1011.084473
2022-10-07T04:38:36.642Z,1011.08783
2022-10-07T04:39:56.429Z,1011.03656
2022-10-07T04:39:59.715Z,1011.03656
2022-10-07T04:40:00.318Z,1011.03656
2022-10-07T04:42:31.429Z,1011.015137
2022-10-07T04:43:28.571Z,1011.023254
2022-10-07T04:44:39.642Z,1010.973877
2022-10-07T04:45:34.786Z,1011.054688
2022-10-07T04:47:25.468Z,1010.987061
2022-10-07T04:48:08.587Z,1011.029846
2022-10-07T04:49:09.864Z,1011.034851
2022-10-07T04:50:06.425Z,1010.949219
2022-10-07T04:51:05.174Z,1011.064514
2022-10-07T04:52:07.264Z,1010.9953
2022-10-07T04:53:04.821Z,1010.982239
2022-10-07T04:54:08.707Z,1011.10083
2022-10-07T04:55:07.791Z,1010.954163
2022-10-07T04:57:08.272Z,1010.954041
2022-10-07T04:58:09.098Z,1010.965759
2022-10-07T04:59:09.240Z,1010.922974
2022-10-07T05:00:12.067Z,1010.9328
2022-10-07T05:01:16.340Z,1010.937683
2022-10-07T05:02:16.106Z,1010.917969
2022-10-07T05:03:17.338Z,1010.891541
2022-10-07T05:04:14.385Z,1010.865234
2022-10-07T05:05:17.410Z,1010.916382
2022-10-07T05:06:13.812Z,1010.86377
2022-10-07T05:07:18.929Z,1010.898132
2022-10-07T05:08:13.141Z,1010.828979
2022-10-07T05:09:15.849Z,1010.794556
2022-10-07T05:10:12.478Z,1010.830811
2022-10-07T05:11:14.890Z,1010.778137
2022-10-07T05:12:18.323Z,1010.733459
2022-10-07T05:13:16.418Z,1010.842041
2022-10-07T05:14:20.262Z,1010.755005
2022-10-07T05:15:19.086Z,1010.702271
2022-10-07T05:17:18.761Z,1010.756348
2022-10-07T05:18:22.685Z,1010.731873
2022-10-07T05:19:23.055Z,1010.675964
2022-10-07T05:20:26.529Z,1010.751709
2022-10-07T05:22:39.042Z,1010.759827
2022-10-07T05:23:45.025Z,1010.723572
2022-10-07T05:24:43.271Z,1010.776245
2022-10-07T05:26:27.627Z,1010.689087
2022-10-07T05:27:19.296Z,1010.733215
2022-10-07T05:28:17.338Z,1010.784363
2022-10-07T05:29:17.152Z,1010.715149
2022-10-07T05:30:12.012Z,1010.710144
2022-10-07T05:32:15.301Z,1010.710327
2022-10-07T05:33:15.697Z,1010.6297
2022-10-07T05:34:11.970Z,1010.654297
2022-10-07T05:35:13.114Z,1010.6297
2022-10-07T05:36:07.901Z,1010.636353
2022-10-07T05:37:11.326Z,1010.66748
2022-10-07T05:38:03.355Z,1010.626587
2022-10-07T05:39:02.850Z,1010.705627
2022-10-07T05:39:57.417Z,1010.619995
2022-10-07T05:40:57.490Z,1010.621582
2022-10-07T05:41:51.927Z,1010.631409
2022-10-07T05:42:56.011Z,1010.669434
2022-10-07T05:43:49.509Z,1010.670959
2022-10-07T05:44:49.226Z,1010.689209
2022-10-07T05:45:44.884Z,1010.690796
2022-10-07T05:47:47.071Z,1010.611694
2022-10-07T05:48:44.209Z,1010.597046
2022-10-07T05:49:38.567Z,1010.61499
2022-10-07T05:50:41.143Z,1010.590454
2022-10-07T05:51:35.858Z,1010.639832
2022-10-07T05:52:39.646Z,1010.53125
2022-10-07T05:53:32.866Z,1010.620178
2022-10-07T05:54:30.399Z,1010.551086
2022-10-07T05:55:34.682Z,1010.597168
2022-10-07T05:56:32.419Z,1010.601868
2022-10-07T05:57:24.314Z,1010.524658
2022-10-07T05:58:25.203Z,1010.605225
2022-10-07T05:59:30.534Z,1010.56897
2022-10-07T06:00:29.863Z,1010.590637
2022-10-07T06:02:29.514Z,1010.597168
2022-10-07T06:03:25.616Z,1010.527954
2022-10-07T06:04:29.330Z,1010.511536
2022-10-07T06:08:54.804Z,1010.529541
2022-10-07T06:09:02.298Z,1010.530945
2022-10-07T06:10:03.205Z,1010.611328
2022-10-07T06:10:58.433Z,1010.603271
2022-10-07T06:11:59.589Z,1010.585022
2022-10-07T06:12:54.900Z,1010.553894
2022-10-07T06:13:54.580Z,1010.540771
2022-10-07T06:14:50.102Z,1010.572021
2022-10-07T06:15:52.642Z,1010.568726
2022-10-07T06:17:47.263Z,1010.516113
2022-10-07T06:18:42.860Z,1010.511414
2022-10-07T06:19:43.930Z,1010.494934
2022-10-07T06:20:39.222Z,1010.532654
2022-10-07T06:22:35.513Z,1010.502991
2022-10-07T06:23:40.539Z,1010.476624
2022-10-07T06:24:36.365Z,1010.493103
2022-10-07T06:25:39.144Z,1010.493103
2022-10-07T06:27:45.048Z,1010.432373
2022-10-07T06:28:38.600Z,1010.420654
2022-10-07T06:29:38.579Z,1010.409241
2022-10-07T06:30:34.075Z,1010.410706
2022-10-07T06:32:29.140Z,1010.476501
2022-10-07T06:33:28.911Z,1010.428833
2022-10-07T06:34:25.585Z,1010.451904
2022-10-07T06:35:24.452Z,1010.474854
2022-10-07T06:37:21.102Z,1010.443298
2022-10-07T06:38:20.357Z,1010.449768
2022-10-07T06:39:18.445Z,1010.443298
2022-10-07T06:40:21.495Z,1010.433289
2022-10-07T06:41:16.717Z,1010.459717
2022-10-07T06:42:21.992Z,1010.495911
2022-10-07T06:43:14.830Z,1010.435181
2022-10-07T06:44:17.400Z,1010.476074
2022-10-07T06:45:10.362Z,1010.412292
2022-10-07T06:47:52.896Z,1010.38562
2022-10-07T06:48:13.265Z,1010.337646
2022-10-07T06:49:12.307Z,1010.409607
2022-10-07T06:50:09.918Z,1010.39624
2022-10-07T06:51:07.966Z,1010.368042
2022-10-07T06:52:07.773Z,1010.351563
2022-10-07T06:53:02.971Z,1010.458984
2022-10-07T06:54:04.309Z,1010.353455
2022-10-07T06:54:59.624Z,1010.411255
2022-10-07T06:55:59.730Z,1010.4375
2022-10-07T06:57:59.114Z,1010.481873
2022-10-07T06:58:52.728Z,1010.466736
2022-10-07T06:59:52.067Z,1010.418884
2022-10-07T07:00:48.507Z,1010.418884
2022-10-07T07:01:48.575Z,1010.445313
2022-10-07T07:02:44.282Z,1010.532471
2022-10-07T07:03:44.988Z,1010.481567
2022-10-07T07:04:41.683Z,1010.465149
2022-10-07T07:05:44.609Z,1010.483154
2022-10-07T07:07:38.472Z,1010.512573
2022-10-07T07:08:35.006Z,1010.48468
2022-10-07T07:09:35.504Z,1010.448303
2022-10-07T07:10:31.209Z,1010.489319
2022-10-07T07:12:30.973Z,1010.502258
2022-10-07T07:13:26.321Z,1010.577942
2022-10-07T07:14:29.518Z,1010.515259
2022-10-07T07:15:22.554Z,1010.520142
2022-10-07T07:25:47.726Z,1010.494873
2022-10-07T07:27:46.964Z,1010.430908
2022-10-07T07:28:48.472Z,1010.431396
2022-10-07T07:29:44.949Z,1010.449829
2022-10-07T07:30:46.080Z,1010.529236
2022-10-07T07:31:43.517Z,1010.484558
2022-10-07T07:32:46.755Z,1010.485413
2022-10-07T07:33:41.500Z,1010.519043
2022-10-07T07:34:45.015Z,1010.475464
2022-10-07T07:38:40.714Z,1010.460938
2022-10-07T07:39:20.502Z,1010.486511
2022-10-07T07:40:19.658Z,1010.44165
2022-10-07T07:42:03.206Z,1010.395996
2022-10-07T07:42:42.757Z,1010.460938
2022-10-07T07:43:40.666Z,1010.426086
2022-10-07T07:44:37.476Z,1010.446106
2022-10-07T07:45:37.269Z,1010.451721
2022-10-07T07:47:22.540Z,1010.404114
2022-10-07T07:48:02.628Z,1010.412476
2022-10-07T07:49:01.755Z,1010.35968
2022-10-07T07:50:01.489Z,1010.351257
2022-10-07T07:52:07.654Z,1010.396118
2022-10-07T07:53:03.533Z,1010.43811
2022-10-07T07:54:03.692Z,1010.446106
2022-10-07T07:54:58.933Z,1010.421692
2022-10-07T08:17:53.114Z,1010.223145
2022-10-07T09:47:31.751Z,1009.51947
2022-10-07T09:48:08.566Z,1009.440308
2022-10-07T09:49:06.586Z,1009.4599
2022-10-07T09:50:05.812Z,1009.383667
2022-10-07T09:51:00.422Z,1009.41217
2022-10-07T09:52:55.023Z,1009.32666
2022-10-07T09:53:53.783Z,1009.388611
2022-10-07T09:54:48.311Z,1009.364685
2022-10-07T09:55:47.992Z,1009.396118
2022-10-07T09:57:43.200Z,1009.35968
2022-10-07T09:58:37.933Z,1009.447632
2022-10-07T09:59:38.044Z,1009.349365
2022-10-07T10:00:33.331Z,1009.427002
2022-10-07T10:01:35.785Z,1009.423279
2022-10-07T10:02:28.513Z,1009.35376
2022-10-07T10:03:28.326Z,1009.293823
2022-10-07T10:04:23.150Z,1009.328735
2022-10-07T10:05:23.183Z,1009.283447
2022-10-07T10:07:18.116Z,1009.259216
2022-10-07T10:08:13.313Z,1009.361694
2022-10-07T10:09:16.871Z,1009.380371
2022-10-07T10:09:20.203Z,1009.380371
2022-10-07T10:10:08.566Z,1009.40033
2022-10-07T10:11:08.513Z,1009.394348
2022-10-07T10:13:06.251Z,1009.238525
2022-10-07T10:13:59.138Z,1009.308105
2022-10-07T10:14:59.410Z,1009.268799
2022-10-07T10:15:54.726Z,1009.20752
2022-10-07T10:17:50.113Z,1009.206848
2022-10-07T10:18:53.030Z,1009.292786
2022-10-07T10:19:45.943Z,1009.245483
2022-10-07T10:20:46.417Z,1009.22876
2022-10-07T10:21:41.830Z,1009.239075
2022-10-07T10:22:42.595Z,1009.21405
2022-10-07T10:23:37.991Z,1009.205322
2022-10-07T10:24:40.904Z,1009.176331
2022-10-07T10:25:33.796Z,1009.202942
2022-10-07T10:26:36.641Z,1009.135681
2022-10-07T10:27:29.414Z,1009.127319
2022-10-07T10:28:27.353Z,1009.147644
2022-10-07T10:29:25.285Z,1009.071228
2022-10-07T10:30:27.727Z,1009.120239
2022-10-07T10:32:21.339Z,1009.009216
2022-10-07T10:34:06.669Z,1009.041809
2022-10-07T10:34:26.931Z,1009.017517
2022-10-07T10:35:25.885Z,1008.969299
2022-10-07T10:36:27.112Z,1008.939087
2022-10-07T10:37:23.345Z,1008.955322
2022-10-07T10:38:23.978Z,1008.904053
2022-10-07T10:39:20.241Z,1008.86554
2022-10-07T10:40:20.196Z,1008.827026
2022-10-07T10:41:15.867Z,1008.795166
2022-10-07T10:42:16.696Z,1008.778931
2022-10-07T10:43:12.251Z,1008.762573
2022-10-07T10:44:12.606Z,1008.713684
2022-10-07T10:45:08.470Z,1008.773438
2022-10-07T10:46:08.631Z,1008.800781
2022-10-07T10:48:01.535Z,1008.776855
2022-10-07T10:48:59.253Z,1008.731628
2022-10-07T10:49:56.857Z,1008.783264
2022-10-07T10:50:54.321Z,1008.675171
2022-10-07T10:52:49.846Z,1008.679504
2022-10-07T10:53:46.629Z,1008.638916
2022-10-07T10:54:44.075Z,1008.548584
2022-10-07T10:55:41.557Z,1008.652832
2022-10-07T10:56:38.839Z,1008.71875
2022-10-07T10:57:36.480Z,1008.67157
2022-10-07T10:58:34.270Z,1008.618286
2022-10-07T10:59:31.680Z,1008.608276
2022-10-07T11:00:29.201Z,1008.565002
2022-10-07T11:01:26.610Z,1008.557007
2022-10-07T11:02:24.201Z,1008.585632
2022-10-07T11:03:23.208Z,1008.569397
2022-10-07T11:04:18.173Z,1008.585632
2022-10-07T11:05:20.719Z,1008.55542
2022-10-07T11:06:14.878Z,1008.55542
2022-10-07T11:07:13.022Z,1008.491821
2022-10-07T11:08:07.855Z,1008.524353
2022-10-07T11:09:52.345Z,1008.46875
2022-10-07T11:10:12.927Z,1008.520081
2022-10-07T11:11:12.447Z,1008.558899
2022-10-07T11:12:13.806Z,1008.486633
2022-10-07T11:13:10.253Z,1008.484314
2022-10-07T11:14:11.159Z,1008.492554
2022-10-07T11:15:07.810Z,1008.454041
2022-10-07T11:16:08.561Z,1008.388855
2022-10-07T11:17:04.327Z,1008.382813
2022-10-07T11:18:04.944Z,1008.378601
2022-10-07T11:19:00.957Z,1008.335632
2022-10-07T11:20:04.537Z,1008.415527
2022-10-07T11:20:57.905Z,1008.311401
2022-10-07T11:21:58.487Z,1008.284668
2022-10-07T11:22:54.242Z,1008.284668
2022-10-07T11:23:54.997Z,1008.260132
2022-10-07T11:24:53.299Z,1008.137329
2022-10-07T11:27:14.439Z,1008.066895
2022-10-07T11:28:17.799Z,1008.170654
2022-10-07T11:29:11.240Z,1008.160217
2022-10-07T11:30:12.116Z,1008.078308
2022-10-07T11:31:07.920Z,1008.162659
2022-10-07T11:33:05.073Z,1008.066406
2022-10-07T11:34:07.979Z,1008.076721
2022-10-07T11:35:02.203Z,1008.058105
2022-10-07T11:35:59.806Z,1008.041809
2022-10-07T11:37:56.486Z,1007.952332
2022-10-07T11:38:57.452Z,1008.032349
2022-10-07T11:39:53.918Z,1007.925781
2022-10-07T11:40:52.492Z,1007.952515
2022-10-07T11:41:49.835Z,1007.997742
2022-10-07T11:42:48.716Z,1007.866577
2022-10-07T11:44:26.202Z,1007.819275
2022-10-07T11:45:06.370Z,1007.835938
2022-10-07T11:46:10.623Z,1007.78064
2022-10-07T11:47:05.179Z,1007.71698
2022-10-07T11:48:00.458Z,1007.802795
2022-10-07T11:49:00.482Z,1007.796875
2022-10-07T11:49:55.634Z,1007.884827
2022-10-07T11:50:58.183Z,1007.790955
2022-10-07T11:51:53.832Z,1007.758057
2022-10-07T11:52:55.955Z,1007.776428
2022-10-07T11:53:49.434Z,1007.704773
2022-10-07T11:54:46.284Z,1007.78064
2022-10-07T11:55:43.821Z,1007.71698
2022-10-07T11:56:41.986Z,1007.700623
2022-10-07T11:57:39.451Z,1007.655396
2022-10-07T11:58:36.987Z,1007.631104
2022-10-07T11:59:35.076Z,1007.612488
2022-10-07T12:00:37.595Z,1007.532593
2022-10-07T12:02:28.677Z,1007.548889
2022-10-07T12:03:26.358Z,1007.460938
2022-10-07T12:04:23.656Z,1007.503906
2022-10-07T12:05:21.256Z,1007.487671
2022-10-07T12:06:18.716Z,1007.444702
2022-10-07T12:07:16.238Z,1007.418152
2022-10-07T12:08:13.596Z,1007.471313
2022-10-07T12:09:11.003Z,1007.393127
2022-10-07T12:10:50.548Z,1007.384155
2022-10-07T12:13:11.430Z,1007.243225
2022-10-07T12:13:47.988Z,1007.248108
2022-10-07T12:14:45.942Z,1007.305237
2022-10-07T12:15:44.797Z,1007.27478
2022-10-07T12:16:39.210Z,1007.275757
2022-10-07T12:17:38.193Z,1007.235962
2022-10-07T12:18:33.425Z,1007.343201
2022-10-07T12:19:31.413Z,1007.339661
2022-10-07T12:20:25.861Z,1007.247986
2022-10-07T12:21:24.659Z,1007.264832
2022-10-07T12:22:18.801Z,1007.218994
2022-10-07T12:23:20.093Z,1007.261902
2022-10-07T12:24:11.969Z,1007.182007
2022-10-07T12:25:11.293Z,1007.168152
2022-10-07T12:26:04.447Z,1007.108887
2022-10-07T12:28:00.498Z,1007.108887
2022-10-07T12:28:54.822Z,1007.129517
2022-10-07T12:29:51.303Z,1007.073914
2022-10-07T12:30:50.501Z,1007.108887
2022-10-07T12:31:44.650Z,1007.051697
2022-10-07T12:32:43.544Z,1007.035461
2022-10-07T12:33:37.059Z,1006.998413
2022-10-07T12:34:33.457Z,1007.035461
2022-10-07T12:35:32.101Z,1006.94812
2022-10-07T12:36:26.384Z,1006.985168
2022-10-07T12:37:24.899Z,1006.917969
2022-10-07T12:38:19.080Z,1006.903748
2022-10-07T12:39:20.374Z,1006.860474
2022-10-07T12:40:11.648Z,1006.875
2022-10-07T12:41:07.963Z,1006.860474
2022-10-07T12:42:06.735Z,1006.856384
2022-10-07T12:43:00.426Z,1006.846008
2022-10-07T12:44:01.887Z,1006.78241
2022-10-07T12:44:54.093Z,1006.78241
2022-10-07T12:45:54.750Z,1006.708435
2022-10-07T12:48:25.297Z,1006.734985
2022-10-07T12:49:25.456Z,1006.6828
2022-10-07T12:50:20.525Z,1006.63031
2022-10-07T12:51:14.894Z,1006.60498
2022-10-07T12:52:14.308Z,1006.609558
2022-10-07T12:53:09.522Z,1006.583984
2022-10-07T12:54:34.051Z,1006.593018
2022-10-07T12:55:13.860Z,1006.53595
2022-10-07T12:56:11.548Z,1006.481262
2022-10-07T12:57:12.230Z,1006.498596
2022-10-07T12:58:07.494Z,1006.457825
2022-10-07T12:59:07.574Z,1006.401001
2022-10-07T13:00:03.821Z,1006.456421
2022-10-07T13:01:03.238Z,1006.444702
2022-10-07T13:01:58.865Z,1006.365784
2022-10-07T13:02:58.589Z,1006.484741
2022-10-07T13:03:53.976Z,1006.441895
2022-10-07T13:04:53.205Z,1006.452209
2022-10-07T13:05:50.469Z,1006.356079
2022-10-07T13:07:46.021Z,1006.467102
2022-10-07T13:08:48.733Z,1006.400024
2022-10-07T13:09:43.092Z,1006.381226
2022-10-07T13:10:46.352Z,1006.274658
2022-10-07T13:11:39.212Z,1006.274658
2022-10-07T13:12:39.331Z,1006.221436
2022-10-07T13:13:34.835Z,1006.245911
2022-10-07T13:14:34.466Z,1006.237732
2022-10-07T13:15:29.678Z,1006.194824
2022-10-07T13:17:25.696Z,1006.178528
2022-10-07T13:18:25.239Z,1006.125305
2022-10-07T13:19:25.726Z,1006.18689
2022-10-07T13:20:18.527Z,1006.143921
2022-10-07T13:21:15.895Z,1006.207581
2022-10-07T13:22:39.210Z,1006.111389
2022-10-07T13:23:24.594Z,1006.138062
2022-10-07T13:23:27.218Z,1006.138062
2022-10-07T13:24:20.676Z,1006.123108
2022-10-07T13:25:16.376Z,1006.089661
2022-10-07T13:26:17.119Z,1006.089661
2022-10-07T13:27:13.479Z,1006.071228
2022-10-07T13:28:14.989Z,1006.081665
2022-10-07T13:29:10.644Z,1006.081665
2022-10-07T13:30:11.544Z,1005.993408
2022-10-07T13:31:07.732Z,1006.094116
2022-10-07T13:32:13.392Z,1005.944702
2022-10-07T13:33:06.734Z,1005.973755
2022-10-07T13:34:11.634Z,1005.95752
2022-10-07T13:35:06.117Z,1005.930786
2022-10-07T13:36:03.463Z,1005.8797
2022-10-07T13:37:03.848Z,1005.943298
2022-10-07T13:37:59.830Z,1005.871643
2022-10-07T13:39:02.950Z,1005.898254
2022-10-07T13:39:57.310Z,1005.887878
2022-10-07T13:40:56.786Z,1005.842651
2022-10-07T13:41:53.056Z,1005.949219
2022-10-07T13:42:56.132Z,1005.930786
2022-10-07T13:43:50.308Z,1005.904236
2022-10-07T13:44:52.626Z,1005.842651
2022-10-07T13:45:46.430Z,1005.820496
2022-10-07T13:46:49.371Z,1005.81842
2022-10-07T13:47:43.044Z,1005.783447
2022-10-07T13:48:46.695Z,1005.7547